M I D A S
Marine Information and Data Acquisition System
Tripno 366 of the Zeeleeuw from 2002-11-27 07:43:24 to 2002-11-27 13:54:14
Back to CruiseResearch ActivitiesStationsMapUnderway DataData graphs

EquipmentUnitsComment
TimeDGPSUTC
LatitudeDGPSDM.mWGS84
LongitudeDGPSDM.mWGS84
TemperatureSBE03/SBE38deg celciusITS90
ConductivitySBE21S/mITS90
SalinitySBE21 Practical Salinity Units
ChlorophylAChelsea fluorimeterg/lCalibrated in Aceton
Missing or incorrect values are displayed as -999
Sea surface data collected by the RV Zeeleeuw from 2002-11-27 07:43:24 to 2002-11-27 13:54:14
                                                                                    Next 1000 lines
Time Latitude Longitude Temperature Conductivity Salinity ChlorophylA
2002-11-27 07:43:34 51°13.587 2°56.13 15.961864 0.066846 0.352263  
2002-11-27 07:43:39 51°13.587 2°56.129 15.958218 0.066846 0.352268  
2002-11-27 07:43:43 51°13.588 2°56.127 15.958218 0.066846 0.352268  
2002-11-27 07:43:48 51°13.589 2°56.125 15.950711 0.066846 0.352268  
2002-11-27 07:43:54 51°13.589 2°56.122 15.966839 0.066846 0.352268  
2002-11-27 07:43:58 51°13.59 2°56.12 15.963108 0.066846 0.352268  
2002-11-27 07:44:04 51°13.591 2°56.116 15.962765 0.066846 0.352268  
2002-11-27 07:44:10 51°13.593 2°56.111 15.960019 0.066846 0.352268  
2002-11-27 07:44:14 51°13.594 2°56.108 15.960019 0.066846 0.352268  
2002-11-27 07:44:20 51°13.595 2°56.103 15.964394 0.066846 0.352273  
2002-11-27 07:44:24 51°13.596 2°56.099 15.964008 0.066846 0.352273  
2002-11-27 07:44:28 51°13.597 2°56.095 15.964609 0.066846 0.352273  
2002-11-27 07:44:34 51°13.599 2°56.089 15.962979 0.066846 0.352268  
2002-11-27 07:44:39 51°13.6 2°56.084 -999 0.066846 0.352273  
2002-11-27 07:44:44 51°13.602 2°56.079 -999 0.066846 0.352273  
2002-11-27 07:44:48 51°13.603 2°56.074 27.587315 0.066846 0.352273  
2002-11-27 07:44:54 51°13.604 2°56.069 27.358321 0.066846 0.352268  
2002-11-27 07:44:59 51°13.605 2°56.065 26.567946 0.066846 0.352273  
2002-11-27 07:45:04 51°13.605 2°56.061 26.710513 0.066742 0.351714  
2002-11-27 07:45:08 51°13.606 2°56.059 26.796997 0.066846 0.352273  
2002-11-27 07:45:12 51°13.607 2°56.057 26.796997 0.066846 0.352273  
2002-11-27 07:45:18 51°13.607 2°56.055 27.161791 0.066846 0.352273  
2002-11-27 07:45:24 51°13.608 2°56.055 26.82914 0.066846 0.352273  
2002-11-27 07:45:28 51°13.608 2°56.054 27.380576 0.066846 0.352268  
2002-11-27 07:45:33 51°13.608 2°56.054 26.277089 0.066742 0.351703  
2002-11-27 07:45:38 51°13.609 2°56.053 25.694934 0.066846 0.352273  
2002-11-27 07:45:43 51°13.609 2°56.052 25.694934 0.066846 0.352273  
2002-11-27 07:45:48 51°13.61 2°56.051 26.034919 0.066846 0.352279  
2002-11-27 07:45:54 51°13.61 2°56.049 26.593653 0.066846 0.352279  
2002-11-27 07:45:59 51°13.611 2°56.046 25.287763 0.066846 0.35229  
2002-11-27 07:46:04 51°13.612 2°56.044 25.965268 0.066742 0.35172  
2002-11-27 07:46:08 51°13.613 2°56.041 25.632928 0.066846 0.35229  
2002-11-27 07:46:14 51°13.614 2°56.037 25.632928 0.066846 0.35229  
2002-11-27 07:46:19 51°13.615 2°56.033 25.970966 0.066846 0.352284  
2002-11-27 07:46:24 51°13.616 2°56.029 26.332588 0.066846 0.35229  
2002-11-27 07:46:30 51°13.618 2°56.024 26.055456 0.066846 0.352284  
2002-11-27 07:46:34 51°13.619 2°56.02 26.148284 0.066846 0.352284  
2002-11-27 07:46:39 51°13.621 2°56.015 27.466647 0.066846 0.35229  
2002-11-27 07:46:44 51°13.622 2°56.01 27.466647 0.066846 0.35229  
2002-11-27 07:46:48 51°13.624 2°56.005 26.902211 0.066846 0.35229  
2002-11-27 07:46:54 51°13.626 2°55.998 26.450305 0.066846 0.35229  
2002-11-27 07:46:59 51°13.628 2°55.993 26.103613 0.066846 0.352295  
2002-11-27 07:47:04 51°13.631 2°55.986 25.659562 0.066846 0.352295  
2002-11-27 07:47:09 51°13.633 2°55.98 25.83946 0.066846 0.352295  
2002-11-27 07:47:14 51°13.635 2°55.974 25.83946 0.066846 0.352295  
2002-11-27 07:47:19 51°13.638 2°55.967 25.568998 0.066846 0.352295  
2002-11-27 07:47:24 51°13.64 2°55.961 25.564692 0.066846 0.352295  
2002-11-27 07:47:30 51°13.643 2°55.952 25.381566 0.066846 0.352295  
2002-11-27 07:47:34 51°13.645 2°55.947 26.208817 0.066846 0.3523  
2002-11-27 07:47:39 51°13.648 2°55.939 25.040378 0.066846 0.352295  
2002-11-27 07:47:44 51°13.651 2°55.932 25.040378 0.066846 0.352295  
2002-11-27 07:47:50 51°13.654 2°55.923 26.451082 0.066846 0.352295  
2002-11-27 07:47:55 51°13.657 2°55.916 26.415702 0.066846 0.352295  
2002-11-27 07:47:59 51°13.659 2°55.909 26.750064 0.066846 0.352295  
2002-11-27 07:48:05 51°13.662 2°55.9 26.58719 0.066846 0.352295  
2002-11-27 07:48:08 51°13.664 2°55.896 26.725665 0.066846 0.352295  
2002-11-27 07:48:15 51°13.667 2°55.885 26.725665 0.066846 0.352295  
2002-11-27 07:48:19 51°13.669 2°55.879 27.058119 0.066846 0.352295  
2002-11-27 07:48:24 51°13.671 2°55.871 27.298868 0.066846 0.3523  
2002-11-27 07:48:30 51°13.673 2°55.862 26.516543 0.066846 0.352295  
2002-11-27 07:48:35 51°13.675 2°55.854 26.302378 0.066846 0.3523  
2002-11-27 07:48:40 51°13.677 2°55.846 25.571357 0.066846 0.352295  
2002-11-27 07:48:44 51°13.678 2°55.84 25.571357 0.066846 0.352295  
2002-11-27 07:48:50 51°13.679 2°55.831 27.122422 0.066846 0.352295  
2002-11-27 07:48:55 51°13.681 2°55.823 27.088278 0.066846 0.3523  
2002-11-27 07:48:59 51°13.682 2°55.817 26.638249 0.066846 0.352295  
2002-11-27 07:49:05 51°13.683 2°55.807 26.086176 0.066846 0.352295  
2002-11-27 07:49:08 51°13.683 2°55.803 27.091176 0.066846 0.352295  
2002-11-27 07:49:15 51°13.685 2°55.792 27.091176 0.066846 0.352295  
2002-11-27 07:49:19 51°13.685 2°55.785 27.247676 0.066846 0.352295  
2002-11-27 07:49:24 51°13.686 2°55.777 27.274466 0.066846 0.3523  
2002-11-27 07:49:30 51°13.686 2°55.768 26.035515 0.066846 0.352295  
2002-11-27 07:49:35 51°13.687 2°55.76 26.095434 0.066846 0.3523  
2002-11-27 07:49:39 51°13.687 2°55.754 25.696504 0.066742 0.351741  
2002-11-27 07:49:44 51°13.687 2°55.747 25.696504 0.066742 0.351741  
2002-11-27 07:49:50 51°13.687 2°55.74 26.710034 0.066846 0.3523  
2002-11-27 07:49:54 51°13.687 2°55.736 26.124948 0.066846 0.352306  
2002-11-27 07:49:59 51°13.687 2°55.731 27.036134 0.066846 0.352295  
2002-11-27 07:50:04 51°13.686 2°55.729 25.757634 0.066846 0.3523  
2002-11-27 07:50:08 51°13.686 2°55.727 26.54685 0.066846 0.352306  
2002-11-27 07:50:14 51°13.686 2°55.725 26.54685 0.066846 0.352306  
2002-11-27 07:50:19 51°13.687 2°55.725 26.182567 0.066846 0.3523  
2002-11-27 07:50:24 51°13.687 2°55.725 25.773954 0.066846 0.3523  
2002-11-27 07:50:29 51°13.688 2°55.725 26.329437 0.066742 0.351741  
2002-11-27 07:50:34 51°13.689 2°55.726 26.80554 0.066846 0.352311  
2002-11-27 07:50:39 51°13.691 2°55.727 26.620015 0.066846 0.352306  
2002-11-27 07:50:44 51°13.692 2°55.728 26.620015 0.066846 0.352306  
2002-11-27 07:50:48 51°13.694 2°55.729 26.736097 0.066846 0.352306  
2002-11-27 07:50:53 51°13.696 2°55.73 26.866016 0.066742 0.351752  
2002-11-27 07:50:59 51°13.699 2°55.731 26.780828 0.066846 0.352311  
2002-11-27 07:51:04 51°13.703 2°55.732 26.865795 0.066846 0.352306  
2002-11-27 07:51:08 51°13.705 2°55.732 26.710439 0.066846 0.352306  
2002-11-27 07:51:14 51°13.71 2°55.732 26.710439 0.066846 0.352306  
2002-11-27 07:51:19 51°13.714 2°55.73 26.1715 0.066846 0.3523  
2002-11-27 07:51:24 51°13.719 2°55.728 25.8189 0.066846 0.352311  
2002-11-27 07:51:28 51°13.723 2°55.726 26.041803 0.066846 0.352311  
2002-11-27 07:51:34 51°13.729 2°55.722 26.086845 0.066846 0.352311  
2002-11-27 07:51:39 51°13.734 2°55.717 26.43987 0.066846 0.352306  
2002-11-27 07:51:44 51°13.74 2°55.712 26.43987 0.066846 0.352306  
2002-11-27 07:51:48 51°13.745 2°55.708 25.843563 0.066846 0.352306  
2002-11-27 07:51:52 51°13.75 2°55.704 25.240008 0.066742 0.351736  
2002-11-27 07:51:59 51°13.759 2°55.695 26.961321 0.066846 0.352295  
2002-11-27 07:52:04 51°13.766 2°55.689 25.751508 0.066846 0.352295  
2002-11-27 07:52:08 51°13.772 2°55.685 26.569682 0.066846 0.3523  
2002-11-27 07:52:14 51°13.781 2°55.677 26.569682 0.066846 0.3523  
2002-11-27 07:52:19 51°13.789 2°55.671 26.748811 0.066742 0.351741  
2002-11-27 07:52:24 51°13.797 2°55.664 28.35992 0.066742 0.351747  
2002-11-27 07:52:28 51°13.804 2°55.659 25.900881 0.066846 0.352311  
2002-11-27 07:52:33 51°13.813 2°55.652 26.017801 0.066846 0.352311  
2002-11-27 07:52:39 51°13.824 2°55.645 26.142005 0.066846 0.352317  
2002-11-27 07:52:44 51°13.833 2°55.639 26.142005 0.066846 0.352317  
2002-11-27 07:52:48 51°13.841 2°55.634 26.47842 0.066846 0.352317  
2002-11-27 07:52:54 51°13.853 2°55.627 26.137211 0.066846 0.352317  
2002-11-27 07:52:59 51°13.863 2°55.621 26.933095 0.066846 0.352317  
2002-11-27 07:53:04 51°13.873 2°55.614 25.663751 0.066846 0.352322  
2002-11-27 07:53:08 51°13.882 2°55.61 25.843004 0.066846 0.352327  
2002-11-27 07:53:14 51°13.895 2°55.603 25.843004 0.066846 0.352327  
2002-11-27 07:53:19 51°13.905 2°55.597 26.420144 0.066846 0.352333  
2002-11-27 07:53:24 51°13.916 2°55.592 26.209373 0.066846 0.352333  
2002-11-27 07:53:28 51°13.925 2°55.587 25.727711 0.066846 0.352333  
2002-11-27 07:53:34 51°13.938 2°55.579 24.672043 0.066846 0.352333  
2002-11-27 07:53:39 51°13.949 2°55.573 26.388859 0.066846 0.352338  
2002-11-27 07:53:44 51°13.961 2°55.567 26.388859 0.066846 0.352338  
2002-11-27 07:53:48 51°13.969 2°55.562 26.410038 0.066742 0.351774  
2002-11-27 07:53:54 51°13.983 2°55.554 26.055977 0.066742 0.351768  
2002-11-27 07:53:59 51°13.994 2°55.547 25.07424 0.066846 0.352333  
2002-11-27 07:54:04 51°14.005 2°55.541 25.816847 0.066846 0.352333  
2002-11-27 07:54:08 51°14.014 2°55.535 25.686261 0.066742 0.351774  
2002-11-27 07:54:14 51°14.028 2°55.527 25.686261 0.066742 0.351774  
2002-11-27 07:54:19 51°14.039 2°55.519 26.317169 0.066846 0.352344  
2002-11-27 07:54:24 51°14.05 2°55.511 26.12283 0.066846 0.352344  
2002-11-27 07:54:29 51°14.061 2°55.502 26.174805 0.066846 0.352349  
2002-11-27 07:54:34 51°14.071 2°55.493 25.474161 0.066846 0.352349  
2002-11-27 07:54:39 51°14.082 2°55.483 26.31906 0.066846 0.352344  
2002-11-27 07:54:44 51°14.093 2°55.473 26.31906 0.066846 0.352344  
2002-11-27 07:54:48 51°14.101 2°55.465 26.027254 0.066742 0.351774  
2002-11-27 07:54:54 51°14.114 2°55.453 24.614893 0.066846 0.352338  
2002-11-27 07:54:59 51°14.125 2°55.443 25.426377 0.066742 0.351779  
2002-11-27 07:55:04 51°14.135 2°55.432 25.944631 0.066742 0.351774  
2002-11-27 07:55:08 51°14.144 2°55.424 26.646294 0.066846 0.352344  
2002-11-27 07:55:14 51°14.157 2°55.411 26.646294 0.066846 0.352344  
2002-11-27 07:55:18 51°14.165 2°55.402 26.48382 0.066846 0.352344  
2002-11-27 07:55:24 51°14.178 2°55.387 26.346743 0.066846 0.352349  
2002-11-27 07:55:28 51°14.187 2°55.377 25.259415 0.066742 0.351784  
2002-11-27 07:55:34 51°14.199 2°55.362 26.614145 0.066846 0.352354  
2002-11-27 07:55:39 51°14.209 2°55.349 26.094951 0.066846 0.352354  
2002-11-27 07:55:44 51°14.219 2°55.335 26.094951 0.066846 0.352354  
2002-11-27 07:55:48 51°14.227 2°55.323 25.159167 0.066742 0.351784  
2002-11-27 07:55:52 51°14.235 2°55.312 25.182322 0.066846 0.352349  
2002-11-27 07:55:59 51°14.248 2°55.291 26.266073 0.066742 0.351779  
2002-11-27 07:56:04 51°14.257 2°55.275 25.433806 0.066742 0.351784  
2002-11-27 07:56:08 51°14.265 2°55.263 25.730625 0.066846 0.352349  
2002-11-27 07:56:14 51°14.276 2°55.244 25.730625 0.066846 0.352349  
2002-11-27 07:56:19 51°14.285 2°55.229 25.184995 0.066742 0.351784  
2002-11-27 07:56:24 51°14.294 2°55.212 25.705138 0.066846 0.352349  
2002-11-27 07:56:29 51°14.303 2°55.196 25.576075 0.066742 0.35179  
2002-11-27 07:56:34 51°14.312 2°55.179 25.090148 0.066742 0.351795  
2002-11-27 07:56:39 51°14.321 2°55.162 25.501677 0.066846 0.352354  
2002-11-27 07:56:44 51°14.33 2°55.144 25.501677 0.066846 0.352354  
2002-11-27 07:56:48 51°14.337 2°55.13 24.741799 0.066846 0.35236  
2002-11-27 07:56:54 51°14.348 2°55.109 25.42649 0.066846 0.352349  
2002-11-27 07:56:59 51°14.357 2°55.092 25.29701 0.066742 0.35179  
2002-11-27 07:57:04 51°14.367 2°55.076 25.451773 0.066846 0.352354  
2002-11-27 07:57:08 51°14.376 2°55.063 25.203475 0.066846 0.352349  
2002-11-27 07:57:14 51°14.389 2°55.044 25.203475 0.066846 0.352349  
2002-11-27 07:57:19 51°14.4 2°55.029 25.574428 0.066846 0.352354  
2002-11-27 07:57:24 51°14.413 2°55.015 24.524506 0.066742 0.351784  
2002-11-27 07:57:28 51°14.423 2°55.003 24.648726 0.066846 0.35236  
2002-11-27 07:57:34 51°14.439 2°54.987 24.887802 0.066846 0.35236  
2002-11-27 07:57:39 51°14.453 2°54.973 23.955427 0.066846 0.35236  
2002-11-27 07:57:44 51°14.467 2°54.96 23.955427 0.066846 0.35236  
2002-11-27 07:57:48 51°14.479 2°54.95 25.752293 0.066846 0.35236  
2002-11-27 07:57:54 51°14.496 2°54.934 25.433581 0.066846 0.352365  
2002-11-27 07:57:59 51°14.511 2°54.921 23.824146 0.066846 0.352365  
2002-11-27 07:58:04 51°14.526 2°54.908 25.308059 0.066742 0.351806  
2002-11-27 07:58:08 51°14.538 2°54.897 25.465387 0.066846 0.352371  
2002-11-27 07:58:14 51°14.557 2°54.88 25.465387 0.066846 0.352371  
2002-11-27 07:58:19 51°14.572 2°54.866 24.136438 0.066742 0.351811  
2002-11-27 07:58:24 51°14.587 2°54.852 25.953274 0.066846 0.352365  
2002-11-27 07:58:28 51°14.599 2°54.841 25.265281 0.066742 0.351806  
2002-11-27 07:58:34 51°14.618 2°54.824 24.598767 0.066846 0.352371  
2002-11-27 07:58:39 51°14.634 2°54.81 25.43992 0.066742 0.351811  
2002-11-27 07:58:44 51°14.65 2°54.796 25.43992 0.066742 0.351811  
2002-11-27 07:58:48 51°14.662 2°54.784 25.312118 0.066742 0.351806  
2002-11-27 07:58:54 51°14.681 2°54.767 25.646396 0.066742 0.351806  
2002-11-27 07:58:59 51°14.696 2°54.752 24.616562 0.066742 0.351811  
2002-11-27 07:59:04 51°14.712 2°54.738 25.001179 0.066742 0.351811  
2002-11-27 07:59:08 51°14.724 2°54.726 25.37417 0.066846 0.352371  
2002-11-27 07:59:14 51°14.744 2°54.709 25.37417 0.066846 0.352371  
2002-11-27 07:59:19 51°14.76 2°54.696 25.745233 0.066846 0.352371  
2002-11-27 07:59:24 51°14.775 2°54.681 24.847046 0.066846 0.352376  
2002-11-27 07:59:28 51°14.788 2°54.67 25.065644 0.066742 0.351811  
2002-11-27 07:59:33 51°14.804 2°54.656 26.106587 0.066846 0.352376  
2002-11-27 07:59:39 51°14.824 2°54.639 24.842281 0.066846 0.352376  
2002-11-27 07:59:44 51°14.84 2°54.625 24.842281 0.066846 0.352376  
2002-11-27 07:59:48 51°14.853 2°54.613 26.047756 0.066742 0.351811  
2002-11-27 07:59:54 51°14.873 2°54.596 25.590265 0.066742 0.351811  
2002-11-27 07:59:59 51°14.889 2°54.581 24.904053 0.066846 0.352365  
2002-11-27 08:00:04 51°14.905 2°54.566 26.25884 0.066742 0.3518  
2002-11-27 08:00:08 51°14.919 2°54.555 25.239745 0.066742 0.351811  
2002-11-27 08:00:14 51°14.938 2°54.537 25.239745 0.066742 0.351811  
2002-11-27 08:00:19 51°14.955 2°54.522 25.493056 0.066742 0.351817  
2002-11-27 08:00:24 51°14.971 2°54.508 24.374042 0.066846 0.352381  
2002-11-27 08:00:28 51°14.984 2°54.496 25.703232 0.066742 0.351817  
2002-11-27 08:00:34 51°15.004 2°54.478 25.277576 0.066742 0.351817  
2002-11-27 08:00:39 51°15.02 2°54.463 26.442609 0.066846 0.352376  
2002-11-27 08:00:44 51°15.036 2°54.449 26.442609 0.066846 0.352376  
2002-11-27 08:00:48 51°15.049 2°54.437 26.55472 0.066742 0.351817  
2002-11-27 08:00:54 51°15.069 2°54.42 24.40209 0.066742 0.351806  
2002-11-27 08:00:59 51°15.085 2°54.405 26.193855 0.066742 0.351817  
2002-11-27 08:01:03 51°15.098 2°54.394 25.177127 0.066846 0.352381  
2002-11-27 08:01:08 51°15.115 2°54.379 25.522363 0.066846 0.352381  
2002-11-27 08:01:14 51°15.135 2°54.362 25.522363 0.066846 0.352381  
2002-11-27 08:01:19 51°15.151 2°54.347 25.57937 0.066846 0.352381  
2002-11-27 08:01:24 51°15.168 2°54.332 24.93303 0.066742 0.351822  
2002-11-27 08:01:28 51°15.181 2°54.32 25.33838 0.066742 0.351817  
2002-11-27 08:01:34 51°15.201 2°54.302 24.813343 0.066846 0.352381  
2002-11-27 08:01:39 51°15.218 2°54.288 25.984483 0.066846 0.352381  
2002-11-27 08:01:44 51°15.234 2°54.273 25.984483 0.066846 0.352381  
2002-11-27 08:01:48 51°15.247 2°54.261 25.187818 0.066742 0.351817  
2002-11-27 08:01:54 51°15.267 2°54.243 24.692246 0.066846 0.352381  
2002-11-27 08:01:59 51°15.285 2°54.228 25.588281 0.066846 0.352381  
2002-11-27 08:02:04 51°15.301 2°54.213 25.057123 0.066742 0.351822  
2002-11-27 08:02:08 51°15.314 2°54.201 25.493281 0.066742 0.351822  
2002-11-27 08:02:14 51°15.334 2°54.182 25.493281 0.066742 0.351822  
2002-11-27 08:02:19 51°15.351 2°54.167 25.853449 0.066742 0.351822  
2002-11-27 08:02:24 51°15.368 2°54.152 25.364257 0.066742 0.351817  
2002-11-27 08:02:28 51°15.382 2°54.14 25.40116 0.066742 0.351822  
2002-11-27 08:02:34 51°15.402 2°54.122 25.177052 0.066742 0.351822  
2002-11-27 08:02:38 51°15.416 2°54.11 25.152426 0.066742 0.351827  
2002-11-27 08:02:44 51°15.436 2°54.092 25.152426 0.066742 0.351827  
2002-11-27 08:02:48 51°15.449 2°54.08 24.961543 0.066846 0.352392  
2002-11-27 08:02:54 51°15.469 2°54.061 25.116829 0.066846 0.352387  
2002-11-27 08:02:59 51°15.486 2°54.045 25.36482 0.066742 0.351822  
2002-11-27 08:03:04 51°15.503 2°54.03 26.130671 0.066846 0.352392  
2002-11-27 08:03:08 51°15.516 2°54.017 24.15763 0.066846 0.352387  
2002-11-27 08:03:14 51°15.536 2°53.998 24.15763 0.066846 0.352387  
2002-11-27 08:03:19 51°15.553 2°53.983 24.501369 0.066742 0.351822  
2002-11-27 08:03:24 51°15.57 2°53.967 24.591291 0.066742 0.351827  
2002-11-27 08:03:28 51°15.583 2°53.955 24.404411 0.066742 0.351822  
2002-11-27 08:03:34 51°15.603 2°53.937 24.40871 0.066846 0.352392  
2002-11-27 08:03:39 51°15.621 2°53.922 24.03337 0.066742 0.351822  
2002-11-27 08:03:44 51°15.638 2°53.907 24.03337 0.066742 0.351822  
2002-11-27 08:03:48 51°15.652 2°53.895 24.71339 0.066742 0.351827  
2002-11-27 08:03:54 51°15.672 2°53.877 24.720891 0.066846 0.352392  
2002-11-27 08:03:59 51°15.69 2°53.861 24.409014 0.066742 0.351827  
2002-11-27 08:04:04 51°15.707 2°53.846 23.879163 0.066742 0.351827  
2002-11-27 08:04:08 51°15.72 2°53.833 24.97102 0.066846 0.352392  
2002-11-27 08:04:14 51°15.741 2°53.815 24.97102 0.066846 0.352392  
2002-11-27 08:04:19 51°15.758 2°53.798 25.0598 0.066846 0.352398  
2002-11-27 08:04:24 51°15.774 2°53.783 24.317914 0.066846 0.352398  
2002-11-27 08:04:28 51°15.788 2°53.769 24.249809 0.066846 0.352392  
2002-11-27 08:04:34 51°15.808 2°53.75 24.466631 0.066742 0.351827  
2002-11-27 08:04:39 51°15.825 2°53.734 24.565898 0.066742 0.351827  
2002-11-27 08:04:44 51°15.841 2°53.718 24.565898 0.066742 0.351827  
2002-11-27 08:04:48 51°15.855 2°53.705 25.668388 0.066742 0.351833  
2002-11-27 08:04:54 51°15.875 2°53.685 24.155378 0.066846 0.352398  
2002-11-27 08:04:59 51°15.892 2°53.669 24.845117 0.066846 0.352392  
2002-11-27 08:05:04 51°15.908 2°53.653 24.155759 0.066742 0.351833  
2002-11-27 08:05:08 51°15.921 2°53.64 24.939603 0.066742 0.351833  
2002-11-27 08:05:14 51°15.942 2°53.621 24.939603 0.066742 0.351833  
2002-11-27 08:05:19 51°15.958 2°53.605 24.598577 0.066846 0.352398  
2002-11-27 08:05:24 51°15.975 2°53.589 24.841827 0.066742 0.351833  
2002-11-27 08:05:28 51°15.988 2°53.576 24.653959 0.066742 0.351833  
2002-11-27 08:05:34 51°16.008 2°53.556 24.311895 0.066742 0.351833  
2002-11-27 08:05:39 51°16.025 2°53.541 24.286518 0.066846 0.352398  
2002-11-27 08:05:44 51°16.042 2°53.524 24.286518 0.066846 0.352398  
2002-11-27 08:05:48 51°16.055 2°53.511 25.027591 0.066846 0.352398  
2002-11-27 08:05:54 51°16.076 2°53.492 25.150958 0.066742 0.351833  
2002-11-27 08:05:59 51°16.092 2°53.476 24.663058 0.066846 0.352398  
2002-11-27 08:06:04 51°16.109 2°53.46 24.565177 0.066742 0.351833  
2002-11-27 08:06:09 51°16.126 2°53.444 24.782273 0.066742 0.351838  
2002-11-27 08:06:14 51°16.143 2°53.428 24.782273 0.066742 0.351838  
2002-11-27 08:06:19 51°16.16 2°53.412 24.678146 0.066846 0.352392  
2002-11-27 08:06:24 51°16.177 2°53.396 25.741758 0.066846 0.352398  
2002-11-27 08:06:28 51°16.191 2°53.383 24.936392 0.066742 0.351844  
2002-11-27 08:06:34 51°16.211 2°53.364 25.221085 0.066742 0.351838  
2002-11-27 08:06:39 51°16.228 2°53.348 24.756606 0.066742 0.351838  
2002-11-27 08:06:44 51°16.245 2°53.332 24.756606 0.066742 0.351838  
2002-11-27 08:06:48 51°16.258 2°53.319 25.713585 0.066846 0.352398  
2002-11-27 08:06:54 51°16.278 2°53.299 24.659267 0.066846 0.352403  
2002-11-27 08:06:59 51°16.295 2°53.283 24.722217 0.066742 0.351844  
2002-11-27 08:07:04 51°16.312 2°53.267 24.659039 0.066846 0.352403  
2002-11-27 08:07:08 51°16.325 2°53.254 25.182736 0.066846 0.352403  
2002-11-27 08:07:14 51°16.345 2°53.234 25.182736 0.066846 0.352403  
2002-11-27 08:07:19 51°16.362 2°53.218 24.565025 0.066742 0.351838  
2002-11-27 08:07:24 51°16.379 2°53.202 24.665485 0.066742 0.351838  
2002-11-27 08:07:28 51°16.392 2°53.189 24.379256 0.066742 0.351838  
2002-11-27 08:07:34 51°16.412 2°53.17 24.132085 0.066742 0.351844  
2002-11-27 08:07:39 51°16.43 2°53.154 23.725779 0.066846 0.352403  
2002-11-27 08:07:44 51°16.446 2°53.139 23.725779 0.066846 0.352403  
2002-11-27 08:07:48 51°16.46 2°53.126 24.668783 0.066846 0.352403  
2002-11-27 08:07:54 51°16.48 2°53.107 25.620431 0.066742 0.351844  
2002-11-27 08:07:59 51°16.497 2°53.09 25.344164 0.066846 0.352408  
2002-11-27 08:08:04 51°16.514 2°53.074 25.137625 0.066742 0.351844  
2002-11-27 08:08:08 51°16.527 2°53.061 25.12832 0.066742 0.351844  
2002-11-27 08:08:14 51°16.547 2°53.042 25.12832 0.066742 0.351844  
2002-11-27 08:08:19 51°16.564 2°53.026 25.251254 0.066846 0.352408  
2002-11-27 08:08:24 51°16.581 2°53.01 24.037118 0.066742 0.351844  
2002-11-27 08:08:28 51°16.595 2°52.998 25.251028 0.066742 0.351849  
2002-11-27 08:08:34 51°16.615 2°52.979 24.382986 0.066742 0.351844  
2002-11-27 08:08:39 51°16.631 2°52.963 24.70278 0.066742 0.351849  
2002-11-27 08:08:44 51°16.648 2°52.947 24.70278 0.066742 0.351849  
2002-11-27 08:08:48 51°16.662 2°52.934 23.065646 0.066742 0.351849  
2002-11-27 08:08:52 51°16.675 2°52.921 24.729149 0.066742 0.351849  
2002-11-27 08:08:59 51°16.699 2°52.899 24.417498 0.066742 0.351844  
2002-11-27 08:09:04 51°16.715 2°52.883 23.823993 0.066846 0.352414  
2002-11-27 08:09:08 51°16.729 2°52.87 25.161276 0.066742 0.351849  
2002-11-27 08:09:14 51°16.749 2°52.851 25.161276 0.066742 0.351849  
2002-11-27 08:09:18 51°16.763 2°52.838 24.72627 0.066742 0.351849  
2002-11-27 08:09:24 51°16.783 2°52.819 24.012563 0.066846 0.352414  
2002-11-27 08:09:28 51°16.796 2°52.807 24.448495 0.066742 0.351849  
2002-11-27 08:09:34 51°16.816 2°52.788 24.386906 0.066846 0.352414  
2002-11-27 08:09:39 51°16.832 2°52.772 25.132652 0.066846 0.352419  
2002-11-27 08:09:44 51°16.849 2°52.756 25.132652 0.066846 0.352419  
2002-11-27 08:09:48 51°16.863 2°52.744 25.130769 0.066846 0.352419  
2002-11-27 08:09:54 51°16.883 2°52.725 24.784166 0.066742 0.351854  
2002-11-27 08:09:59 51°16.9 2°52.71 24.108135 0.066742 0.351849  
2002-11-27 08:10:04 51°16.917 2°52.695 24.451461 0.066846 0.352419  
2002-11-27 08:10:08 51°16.931 2°52.683 24.946929 0.066742 0.35186  
2002-11-27 08:10:14 51°16.951 2°52.665 24.946929 0.066742 0.35186  
2002-11-27 08:10:19 51°16.968 2°52.65 23.323357 0.066846 0.352419  
2002-11-27 08:10:24 51°16.986 2°52.635 21.616008 0.066742 0.35186  
2002-11-27 08:10:28 51°17 2°52.623 24.201712 0.066742 0.351854  
2002-11-27 08:10:34 51°17.021 2°52.604 24.539166 0.066742 0.351854  
2002-11-27 08:10:38 51°17.035 2°52.592 24.761945 0.066742 0.35186  
2002-11-27 08:10:44 51°17.055 2°52.574 24.761945 0.066742 0.35186  
2002-11-27 08:10:48 51°17.069 2°52.562 24.854533 0.066742 0.35186  
2002-11-27 08:10:54 51°17.09 2°52.544 24.885685 0.066846 0.352425  
2002-11-27 08:10:59 51°17.107 2°52.528 25.195797 0.066742 0.35186  
2002-11-27 08:11:04 51°17.124 2°52.513 24.824428 0.066742 0.35186  
2002-11-27 08:11:08 51°17.138 2°52.501 24.539698 0.066846 0.352425  
2002-11-27 08:11:14 51°17.159 2°52.483 24.539698 0.066846 0.352425  
2002-11-27 08:11:19 51°17.175 2°52.468 24.482368 0.066742 0.35186  
2002-11-27 08:11:24 51°17.193 2°52.453 24.299855 0.066742 0.35186  
2002-11-27 08:11:28 51°17.207 2°52.441 25.132238 0.066742 0.35186  
2002-11-27 08:11:34 51°17.229 2°52.425 24.970605 0.066846 0.352419  
2002-11-27 08:11:39 51°17.247 2°52.413 24.383215 0.066846 0.352419  
2002-11-27 08:11:44 51°17.266 2°52.403 24.383215 0.066846 0.352419  
2002-11-27 08:11:48 51°17.281 2°52.396 24.404182 0.066742 0.351854  
2002-11-27 08:11:54 51°17.304 2°52.386 24.368713 0.066742 0.351854  
2002-11-27 08:11:59 51°17.324 2°52.379 24.564873 0.066742 0.351865  
2002-11-27 08:12:04 51°17.343 2°52.373 25.025176 0.066742 0.351865  
2002-11-27 08:12:08 51°17.359 2°52.368 25.095689 0.066846 0.352435  
2002-11-27 08:12:14 51°17.382 2°52.362 25.095689 0.066846 0.352435  
2002-11-27 08:12:19 51°17.402 2°52.359 23.246423 0.066846 0.352435  
2002-11-27 08:12:24 51°17.421 2°52.357 24.440661 0.066742 0.351865  
2002-11-27 08:12:28 51°17.437 2°52.355 24.311057 0.066742 0.35186  
2002-11-27 08:12:34 51°17.461 2°52.355 23.941528 0.066742 0.351871  
2002-11-27 08:12:39 51°17.481 2°52.354 25.493993 0.066742 0.351871  
2002-11-27 08:12:44 51°17.501 2°52.354 25.493993 0.066742 0.351871  
2002-11-27 08:12:48 51°17.517 2°52.354 24.877105 0.066846 0.35243  
2002-11-27 08:12:54 51°17.541 2°52.354 26.077958 0.066742 0.351871  
2002-11-27 08:12:59 51°17.561 2°52.354 24.978533 0.066846 0.352435  
2002-11-27 08:13:04 51°17.58 2°52.354 23.91629 0.066742 0.351871  
2002-11-27 08:13:08 51°17.596 2°52.353 23.859308 0.066742 0.351871  
2002-11-27 08:13:14 51°17.62 2°52.353 23.859308 0.066742 0.351871  
2002-11-27 08:13:19 51°17.64 2°52.353 24.473321 0.066742 0.351871  
2002-11-27 08:13:24 51°17.66 2°52.352 24.347316 0.066742 0.351871  
2002-11-27 08:13:28 51°17.676 2°52.351 24.169044 0.066742 0.351876  
2002-11-27 08:13:34 51°17.699 2°52.35 24.54266 0.066742 0.351871  
2002-11-27 08:13:39 51°17.72 2°52.35 24.601955 0.066846 0.352441  
2002-11-27 08:13:44 51°17.739 2°52.349 24.601955 0.066846 0.352441  
2002-11-27 08:13:48 51°17.755 2°52.349 24.400606 0.066742 0.351876  
2002-11-27 08:13:54 51°17.779 2°52.347 25.49924 0.066742 0.351876  
2002-11-27 08:13:59 51°17.799 2°52.347 23.914528 0.066742 0.351871  
2002-11-27 08:14:04 51°17.819 2°52.346 24.638714 0.066742 0.351876  
2002-11-27 08:14:08 51°17.835 2°52.345 24.581803 0.066742 0.351871  
2002-11-27 08:14:14 51°17.859 2°52.344 24.581803 0.066742 0.351871  
2002-11-27 08:14:19 51°17.878 2°52.344 25.346418 0.066742 0.351876  
2002-11-27 08:14:24 51°17.898 2°52.345 24.315628 0.066742 0.351876  
2002-11-27 08:14:28 51°17.914 2°52.347 24.54323 0.066742 0.351865  
2002-11-27 08:14:33 51°17.934 2°52.352 24.005677 0.066742 0.351871  
2002-11-27 08:14:38 51°17.953 2°52.359 24.492895 0.066846 0.352435  
2002-11-27 08:14:43 51°17.972 2°52.366 24.726346 0.066742 0.351876  
2002-11-27 08:14:48 51°17.991 2°52.373 24.726346 0.066742 0.351876  
2002-11-27 08:14:52 51°18.006 2°52.381 23.006592 0.066742 0.351881  
2002-11-27 08:14:58 51°18.029 2°52.391 24.426171 0.066742 0.351881  
2002-11-27 08:15:04 51°18.051 2°52.401 24.254765 0.066742 0.351887  
2002-11-27 08:15:08 51°18.066 2°52.408 24.123644 0.066742 0.351887  
2002-11-27 08:15:12 51°18.082 2°52.415 24.123644 0.066742 0.351887  
2002-11-27 08:15:18 51°18.104 2°52.426 24.722747 0.066742 0.351881  
2002-11-27 08:15:23 51°18.124 2°52.434 23.689361 0.066742 0.351887  
2002-11-27 08:15:28 51°18.143 2°52.443 23.702232 0.066742 0.351876  
2002-11-27 08:15:32 51°18.158 2°52.449 24.692094 0.066742 0.351881  
2002-11-27 08:15:38 51°18.18 2°52.46 24.095068 0.066742 0.351887  
2002-11-27 08:15:44 51°18.204 2°52.469 24.095068 0.066742 0.351887  
2002-11-27 08:15:48 51°18.219 2°52.477 24.319552 0.066742 0.351887  
2002-11-27 08:15:53 51°18.238 2°52.485 24.222007 0.066742 0.351881  
2002-11-27 08:15:58 51°18.257 2°52.493 24.353865 0.066742 0.351881  
2002-11-27 08:16:03 51°18.276 2°52.5 23.466574 0.066742 0.351887  
2002-11-27 08:16:08 51°18.295 2°52.509 24.600968 0.066742 0.351881  
2002-11-27 08:16:13 51°18.314 2°52.517 24.600968 0.066742 0.351881  
2002-11-27 08:16:18 51°18.333 2°52.525 24.50532 0.066742 0.351881  
2002-11-27 08:16:23 51°18.353 2°52.532 23.663304 0.066742 0.351881  
2002-11-27 08:16:28 51°18.372 2°52.539 23.411088 0.066742 0.351887  
2002-11-27 08:16:34 51°18.395 2°52.549 23.567565 0.066742 0.351887  
2002-11-27 08:16:39 51°18.414 2°52.556 23.978547 0.066742 0.351887  
2002-11-27 08:16:43 51°18.429 2°52.563 23.978547 0.066742 0.351887  
2002-11-27 08:16:48 51°18.449 2°52.571 24.725172 0.066742 0.351881  
2002-11-27 08:16:53 51°18.468 2°52.579 24.647323 0.066742 0.351887  
2002-11-27 08:16:59 51°18.491 2°52.587 25.130618 0.066742 0.351881  
2002-11-27 08:17:03 51°18.507 2°52.593 24.498215 0.066742 0.351881  
2002-11-27 08:17:08 51°18.526 2°52.601 25.444309 0.066742 0.351887  
2002-11-27 08:17:12 51°18.541 2°52.608 25.444309 0.066742 0.351887  
2002-11-27 08:17:18 51°18.564 2°52.619 23.574147 0.066742 0.351881  
2002-11-27 08:17:24 51°18.586 2°52.633 23.944745 0.066742 0.351876  
2002-11-27 08:17:28 51°18.6 2°52.644 23.714026 0.066742 0.351876  
2002-11-27 08:17:32 51°18.613 2°52.656 24.215027 0.066742 0.351876  
2002-11-27 08:17:38 51°18.634 2°52.675 24.065334 0.066742 0.351881  
2002-11-27 08:17:43 51°18.65 2°52.692 24.065334 0.066742 0.351881  
2002-11-27 08:17:48 51°18.666 2°52.71 24.533394 0.066742 0.351892  
2002-11-27 08:17:52 51°18.678 2°52.725 24.71339 0.066742 0.351892  
2002-11-27 08:17:58 51°18.697 2°52.749 24.535331 0.066742 0.351892  
2002-11-27 08:18:03 51°18.711 2°52.77 23.933448 0.066742 0.351892  
2002-11-27 08:18:08 51°18.724 2°52.792 25.310013 0.066742 0.351892  
2002-11-27 08:18:12 51°18.735 2°52.811 25.310013 0.066742 0.351892  
2002-11-27 08:18:18 51°18.749 2°52.84 24.21495 0.066846 0.352452  
2002-11-27 08:18:23 51°18.761 2°52.864 24.396724 0.066742 0.351887  
2002-11-27 08:18:28 51°18.772 2°52.889 24.942586 0.066742 0.351887  
2002-11-27 08:18:32 51°18.781 2°52.908 24.505928 0.066742 0.351892  
2002-11-27 08:18:38 51°18.794 2°52.939 24.376211 0.066742 0.351892  
2002-11-27 08:18:43 51°18.805 2°52.965 24.376211 0.066742 0.351892  
2002-11-27 08:18:48 51°18.815 2°52.991 24.441954 0.066742 0.351887  
2002-11-27 08:18:52 51°18.823 2°53.012 24.92132 0.066742 0.351892  
2002-11-27 08:18:58 51°18.834 2°53.044 24.404258 0.066742 0.351887  
2002-11-27 08:19:03 51°18.844 2°53.071 23.484803 0.066742 0.351898  
2002-11-27 08:19:08 51°18.854 2°53.097 24.074355 0.066742 0.351887  
2002-11-27 08:19:12 51°18.861 2°53.119 24.074355 0.066742 0.351887  
2002-11-27 08:19:18 51°18.872 2°53.152 24.111459 0.066742 0.351881  
2002-11-27 08:19:23 51°18.88 2°53.179 24.459788 0.066742 0.351892  
2002-11-27 08:19:28 51°18.888 2°53.208 24.179464 0.066742 0.351887  
2002-11-27 08:19:32 51°18.894 2°53.23 24.801802 0.066742 0.351898  
2002-11-27 08:19:38 51°18.904 2°53.263 23.756766 0.066742 0.351887  
2002-11-27 08:19:43 51°18.912 2°53.291 23.756766 0.066742 0.351887  
2002-11-27 08:19:48 51°18.919 2°53.319 24.468303 0.066742 0.351892  
2002-11-27 08:19:52 51°18.925 2°53.342 24.497189 0.066742 0.351887  
2002-11-27 08:19:58 51°18.935 2°53.375 24.188815 0.066742 0.351892  
2002-11-27 08:20:02 51°18.941 2°53.397 24.237187 0.066742 0.351892  
2002-11-27 08:20:08 51°18.95 2°53.431 24.281716 0.066742 0.351898  
2002-11-27 08:20:12 51°18.956 2°53.454 24.281716 0.066742 0.351898  
2002-11-27 08:20:18 51°18.964 2°53.488 24.415254 0.066742 0.351887  
2002-11-27 08:20:23 51°18.971 2°53.516 24.519567 0.066742 0.351881  
2002-11-27 08:20:28 51°18.978 2°53.545 24.528608 0.066742 0.351887  
2002-11-27 08:20:32 51°18.983 2°53.568 23.73945 0.066742 0.351892  
2002-11-27 08:20:39 51°18.992 2°53.609 24.4345 0.066742 0.351892  
2002-11-27 08:20:43 51°18.996 2°53.632 24.4345 0.066742 0.351892  
2002-11-27 08:20:48 51°19.002 2°53.661 23.560752 0.066742 0.351892  
2002-11-27 08:20:52 51°19.007 2°53.684 24.338519 0.066742 0.351898  
2002-11-27 08:20:58 51°19.015 2°53.719 24.53252 0.066742 0.351898  
2002-11-27 08:21:04 51°19.022 2°53.754 24.494605 0.066742 0.351898  
2002-11-27 08:21:09 51°19.028 2°53.783 24.21476 0.066742 0.351887  
2002-11-27 08:21:13 51°19.033 2°53.806 24.21476 0.066742 0.351887  
2002-11-27 08:21:19 51°19.04 2°53.84 23.720018 0.066742 0.351892  
2002-11-27 08:21:23 51°19.045 2°53.863 24.50532 0.066742 0.351892  
2002-11-27 08:21:29 51°19.052 2°53.898 24.447887 0.066742 0.351887  
2002-11-27 08:21:33 51°19.058 2°53.921 24.944286 0.066742 0.351892  
2002-11-27 08:21:39 51°19.065 2°53.955 24.028322 0.066742 0.351887  
2002-11-27 08:21:43 51°19.07 2°53.978 24.028322 0.066742 0.351887  
2002-11-27 08:21:49 51°19.077 2°54.012 24.784999 0.066742 0.351881  
2002-11-27 08:21:53 51°19.082 2°54.035 23.853596 0.066742 0.351887  
2002-11-27 08:21:59 51°19.09 2°54.07 23.951101 0.066742 0.351892  
2002-11-27 08:22:04 51°19.096 2°54.098 24.61144 0.066742 0.351887  
2002-11-27 08:22:09 51°19.103 2°54.127 23.605122 0.066742 0.351898  
2002-11-27 08:22:13 51°19.107 2°54.15 23.605122 0.066742 0.351898  
2002-11-27 08:22:19 51°19.115 2°54.185 23.595581 0.066742 0.351887  
2002-11-27 08:22:24 51°19.121 2°54.214 23.730618 0.066742 0.351887  
2002-11-27 08:22:29 51°19.127 2°54.242 24.388124 0.066742 0.351892  
2002-11-27 08:22:33 51°19.131 2°54.265 24.053368 0.066742 0.351892  
2002-11-27 08:22:39 51°19.139 2°54.3 24.461689 0.066742 0.351898  
2002-11-27 08:22:44 51°19.146 2°54.328 24.461689 0.066742 0.351898  
2002-11-27 08:22:49 51°19.152 2°54.357 24.513565 0.066742 0.351887  
2002-11-27 08:22:53 51°19.157 2°54.379 24.026448 0.066742 0.351903  
2002-11-27 08:22:59 51°19.165 2°54.414 24.129717 0.066742 0.351892  
2002-11-27 08:23:04 51°19.172 2°54.443 23.67372 0.066742 0.351892  
2002-11-27 08:23:09 51°19.178 2°54.472 24.26746 0.066742 0.351887  
2002-11-27 08:23:13 51°19.183 2°54.495 24.26746 0.066742 0.351887  
2002-11-27 08:23:19 51°19.19 2°54.529 23.916788 0.066742 0.351898  
2002-11-27 08:23:24 51°19.197 2°54.558 24.397333 0.066742 0.351892  
2002-11-27 08:23:29 51°19.202 2°54.587 23.423546 0.066742 0.351892  
2002-11-27 08:23:33 51°19.207 2°54.61 24.497037 0.066742 0.351892  
2002-11-27 08:23:39 51°19.215 2°54.644 24.207778 0.066742 0.351892  
2002-11-27 08:23:44 51°19.221 2°54.673 24.207778 0.066742 0.351892  
2002-11-27 08:23:49 51°19.227 2°54.702 24.780078 0.066742 0.351892  
2002-11-27 08:23:53 51°19.232 2°54.725 23.933219 0.066742 0.351898  
2002-11-27 08:23:59 51°19.24 2°54.759 24.253965 0.066742 0.351892  
2002-11-27 08:24:04 51°19.247 2°54.787 23.809225 0.066742 0.351898  
2002-11-27 08:24:09 51°19.253 2°54.816 24.342785 0.066742 0.351898  
2002-11-27 08:24:13 51°19.258 2°54.839 24.342785 0.066742 0.351898  
2002-11-27 08:24:19 51°19.266 2°54.873 24.501711 0.066742 0.351892  
2002-11-27 08:24:23 51°19.271 2°54.896 25.029364 0.066742 0.351887  
2002-11-27 08:24:29 51°19.278 2°54.931 24.662982 0.066742 0.351887  
2002-11-27 08:24:33 51°19.283 2°54.954 24.882057 0.066742 0.351892  
2002-11-27 08:24:39 51°19.291 2°54.988 24.192135 0.066742 0.351887  
2002-11-27 08:24:44 51°19.297 2°55.017 24.192135 0.066742 0.351887  
2002-11-27 08:24:49 51°19.304 2°55.045 24.475982 0.066742 0.351898  
2002-11-27 08:24:53 51°19.31 2°55.067 22.54162 0.066742 0.351892  
2002-11-27 08:24:59 51°19.317 2°55.101 24.100761 0.066742 0.351892  
2002-11-27 08:25:04 51°19.324 2°55.13 24.451385 0.066742 0.351892  
2002-11-27 08:25:09 51°19.33 2°55.159 25.590265 0.066742 0.351892  
2002-11-27 08:25:14 51°19.337 2°55.187 25.590265 0.066742 0.351892  
2002-11-27 08:25:19 51°19.343 2°55.216 24.730323 0.066742 0.351892  
2002-11-27 08:25:24 51°19.349 2°55.245 24.570036 0.066742 0.351892  
2002-11-27 08:25:29 51°19.355 2°55.274 23.851449 0.066742 0.351892  
2002-11-27 08:25:33 51°19.36 2°55.297 24.592392 0.066742 0.351892  
2002-11-27 08:25:39 51°19.368 2°55.331 25.131786 0.066742 0.351892  
2002-11-27 08:25:43 51°19.372 2°55.354 25.131786 0.066742 0.351892  
2002-11-27 08:25:49 51°19.379 2°55.389 24.607798 0.066742 0.351892  
2002-11-27 08:25:53 51°19.384 2°55.413 24.826622 0.066742 0.351892  
2002-11-27 08:25:59 51°19.393 2°55.449 25.538698 0.066742 0.351898  
2002-11-27 08:26:04 51°19.399 2°55.477 24.544293 0.066742 0.351892  
2002-11-27 08:26:09 51°19.406 2°55.506 24.920073 0.066742 0.351898  
2002-11-27 08:26:14 51°19.413 2°55.535 24.920073 0.066742 0.351898  
2002-11-27 08:26:19 51°19.42 2°55.563 23.992247 0.066742 0.351898  
2002-11-27 08:26:24 51°19.426 2°55.591 23.872762 0.066742 0.351892  
2002-11-27 08:26:29 51°19.433 2°55.62 25.5055 0.066742 0.351898  
2002-11-27 08:26:33 51°19.437 2°55.643 24.598805 0.066742 0.351881  
2002-11-27 08:26:39 51°19.445 2°55.677 25.023893 0.066742 0.351892  
2002-11-27 08:26:44 51°19.451 2°55.706 25.023893 0.066742 0.351892  
2002-11-27 08:26:49 51°19.457 2°55.734 23.829247 0.066742 0.351881  
2002-11-27 08:26:53 51°19.462 2°55.757 24.277028 0.066742 0.351898  
2002-11-27 08:26:59 51°19.469 2°55.793 24.084598 0.066742 0.351892  
2002-11-27 08:27:04 51°19.476 2°55.821 23.676026 0.066742 0.351892  
2002-11-27 08:27:09 51°19.481 2°55.849 24.523328 0.066742 0.351892  
2002-11-27 08:27:13 51°19.487 2°55.872 24.523328 0.066742 0.351892  
2002-11-27 08:27:19 51°19.493 2°55.906 24.485712 0.066742 0.351898  
2002-11-27 08:27:24 51°19.5 2°55.935 24.034288 0.066742 0.351908  
2002-11-27 08:27:29 51°19.506 2°55.964 24.409737 0.066742 0.351892  
2002-11-27 08:27:33 51°19.512 2°55.987 24.473283 0.066742 0.351903  
2002-11-27 08:27:39 51°19.518 2°56.022 23.9787 0.066742 0.351887  
2002-11-27 08:27:44 51°19.525 2°56.05 23.9787 0.066742 0.351887  
2002-11-27 08:27:49 51°19.531 2°56.08 24.358015 0.066742 0.351898  
2002-11-27 08:27:53 51°19.536 2°56.103 23.581651 0.066742 0.351898  
2002-11-27 08:27:59 51°19.543 2°56.137 24.085591 0.066742 0.351881  
2002-11-27 08:28:04 51°19.551 2°56.165 24.223304 0.066742 0.351903  
2002-11-27 08:28:09 51°19.556 2°56.195 24.231962 0.066742 0.351892  
2002-11-27 08:28:13 51°19.562 2°56.218 24.231962 0.066742 0.351892  
2002-11-27 08:28:19 51°19.569 2°56.253 23.607546 0.066742 0.351892  
2002-11-27 08:28:23 51°19.575 2°56.276 23.70811 0.066742 0.351898  
2002-11-27 08:28:29 51°19.581 2°56.312 23.155084 0.066742 0.351887  
2002-11-27 08:28:33 51°19.587 2°56.335 23.838182 0.066742 0.351892  
2002-11-27 08:28:39 51°19.594 2°56.37 24.277638 0.066742 0.351892  
2002-11-27 08:28:44 51°19.6 2°56.4 24.277638 0.066742 0.351892  
2002-11-27 08:28:49 51°19.606 2°56.429 23.777646 0.066742 0.351892  
2002-11-27 08:28:53 51°19.612 2°56.452 23.340927 0.066742 0.351892  
2002-11-27 08:28:59 51°19.619 2°56.487 23.587154 0.066742 0.351892  
2002-11-27 08:29:04 51°19.625 2°56.516 23.777263 0.066742 0.351892  
2002-11-27 08:29:09 51°19.632 2°56.545 23.594465 0.066742 0.351887  
2002-11-27 08:29:13 51°19.636 2°56.568 23.594465 0.066742 0.351887  
2002-11-27 08:29:19 51°19.644 2°56.603 24.384166 0.066742 0.351892  
2002-11-27 08:29:23 51°19.649 2°56.626 23.875637 0.066742 0.351881  
2002-11-27 08:29:29 51°19.657 2°56.661 23.602891 0.066742 0.351887  
2002-11-27 08:29:33 51°19.662 2°56.684 23.531453 0.066742 0.351887  
2002-11-27 08:29:39 51°19.671 2°56.718 23.850874 0.066742 0.351892  
2002-11-27 08:29:44 51°19.677 2°56.747 23.850874 0.066742 0.351892  
2002-11-27 08:29:49 51°19.684 2°56.776 23.599005 0.066742 0.351892  
2002-11-27 08:29:53 51°19.689 2°56.799 24.100876 0.066742 0.351881  
2002-11-27 08:29:59 51°19.697 2°56.835 23.793111 0.066742 0.351887  
2002-11-27 08:30:04 51°19.703 2°56.864 23.438817 0.066742 0.351881  
2002-11-27 08:30:09 51°19.709 2°56.893 24.075425 0.066742 0.351887  
2002-11-27 08:30:13 51°19.714 2°56.916 24.075425 0.066742 0.351887  
2002-11-27 08:30:19 51°19.722 2°56.951 23.385586 0.066742 0.351881  
2002-11-27 08:30:24 51°19.729 2°56.98 23.85812 0.066742 0.351881  
2002-11-27 08:30:29 51°19.735 2°57.009 23.608853 0.066742 0.351887  
2002-11-27 08:30:33 51°19.741 2°57.032 23.388789 0.066742 0.351887  
2002-11-27 08:30:39 51°19.748 2°57.068 24.979288 0.066742 0.351887  
2002-11-27 08:30:44 51°19.755 2°57.097 24.979288 0.066742 0.351887  
2002-11-27 08:30:49 51°19.761 2°57.126 23.757956 0.066742 0.351881  
2002-11-27 08:30:53 51°19.766 2°57.149 24.452868 0.066742 0.351887  
2002-11-27 08:30:59 51°19.772 2°57.185 23.641659 0.066742 0.351887  
2002-11-27 08:31:04 51°19.778 2°57.214 23.676103 0.066742 0.351887  
2002-11-27 08:31:09 51°19.785 2°57.243 23.493049 0.066742 0.351892  
2002-11-27 08:31:13 51°19.79 2°57.266 23.493049 0.066742 0.351892  
2002-11-27 08:31:19 51°19.797 2°57.301 23.03913 0.066742 0.351887  
2002-11-27 08:31:24 51°19.804 2°57.33 24.306066 0.066742 0.351887  
2002-11-27 08:31:29 51°19.81 2°57.36 23.431529 0.066742 0.351887  
2002-11-27 08:31:33 51°19.815 2°57.383 22.353108 0.066742 0.351892  
2002-11-27 08:31:39 51°19.824 2°57.417 23.145329 0.066742 0.351887  
2002-11-27 08:31:44 51°19.83 2°57.445 23.145329 0.066742 0.351887  
2002-11-27 08:31:49 51°19.837 2°57.474 22.60722 0.066742 0.351887  
2002-11-27 08:31:53 51°19.842 2°57.498 22.991772 0.066742 0.351892  
2002-11-27 08:31:59 51°19.85 2°57.533 23.085643 0.066742 0.351881  
2002-11-27 08:32:04 51°19.856 2°57.562 22.964181 0.066742 0.351887  
2002-11-27 08:32:09 51°19.862 2°57.591 24.247979 0.066742 0.351881  
2002-11-27 08:32:14 51°19.868 2°57.62 24.247979 0.066742 0.351881  
2002-11-27 08:32:19 51°19.874 2°57.649 23.503567 0.066742 0.351887  
2002-11-27 08:32:24 51°19.881 2°57.678 22.747625 0.066742 0.351892  
2002-11-27 08:32:29 51°19.887 2°57.707 23.462565 0.066742 0.351887  
2002-11-27 08:32:33 51°19.892 2°57.73 23.562831 0.066742 0.351887  
2002-11-27 08:32:39 51°19.9 2°57.764 24.003764 0.066742 0.351887  
2002-11-27 08:32:44 51°19.906 2°57.794 24.003764 0.066742 0.351887  
2002-11-27 08:32:49 51°19.912 2°57.823 23.912038 0.066742 0.351881  
2002-11-27 08:32:53 51°19.917 2°57.846 23.314783 0.066742 0.351887  
2002-11-27 08:32:59 51°19.924 2°57.881 24.138844 0.066742 0.351881  
2002-11-27 08:33:04 51°19.93 2°57.91 23.790847 0.066742 0.351887  
2002-11-27 08:33:09 51°19.936 2°57.939 23.86226 0.066742 0.351887  
2002-11-27 08:33:13 51°19.941 2°57.963 23.86226 0.066742 0.351887  
2002-11-27 08:33:19 51°19.949 2°57.997 23.673259 0.066742 0.351892  
2002-11-27 08:33:24 51°19.955 2°58.027 23.8159 0.066742 0.351887  
2002-11-27 08:33:29 51°19.962 2°58.056 23.671606 0.066742 0.351892  
2002-11-27 08:33:33 51°19.967 2°58.079 24.035856 0.066742 0.351881  
2002-11-27 08:33:39 51°19.974 2°58.113 24.355312 0.066742 0.351881  
2002-11-27 08:33:44 51°19.981 2°58.142 24.355312 0.066742 0.351881  
2002-11-27 08:33:49 51°19.987 2°58.171 23.769203 0.066742 0.351892  
2002-11-27 08:33:53 51°19.993 2°58.194 23.929427 0.066742 0.351881  
2002-11-27 08:33:59 51°20 2°58.229 24.286785 0.066742 0.351887  
2002-11-27 08:34:04 51°20.007 2°58.258 23.650964 0.066742 0.351881  
2002-11-27 08:34:09 51°20.013 2°58.287 23.645543 0.066742 0.351881  
2002-11-27 08:34:13 51°20.018 2°58.31 23.645543 0.066742 0.351881  
2002-11-27 08:34:19 51°20.025 2°58.345 24.799759 0.066742 0.351887  
2002-11-27 08:34:24 51°20.033 2°58.374 23.878665 0.066742 0.351892  
2002-11-27 08:34:29 51°20.039 2°58.403 24.266927 0.066742 0.351881  
2002-11-27 08:34:33 51°20.044 2°58.425 24.557545 0.066742 0.351887  
2002-11-27 08:34:39 51°20.052 2°58.46 23.59181 0.066742 0.351881  
2002-11-27 08:34:44 51°20.058 2°58.489 23.59181 0.066742 0.351881  
2002-11-27 08:34:49 51°20.064 2°58.518 24.641293 0.066742 0.351881  
2002-11-27 08:34:53 51°20.07 2°58.541 24.062505 0.066742 0.351887  
2002-11-27 08:34:59 51°20.077 2°58.576 24.018913 0.066742 0.351881  
2002-11-27 08:35:04 51°20.084 2°58.605 25.336088 0.066742 0.351887  
2002-11-27 08:35:09 51°20.09 2°58.635 23.906828 0.066742 0.351887  
2002-11-27 08:35:13 51°20.095 2°58.658 23.906828 0.066742 0.351887  
2002-11-27 08:35:19 51°20.102 2°58.693 23.51339 0.066742 0.351876  
2002-11-27 08:35:24 51°20.107 2°58.722 23.594773 0.066742 0.351876  
2002-11-27 08:35:29 51°20.113 2°58.752 24.102863 0.066742 0.351876  
2002-11-27 08:35:33 51°20.118 2°58.775 23.947923 0.066742 0.351881  
2002-11-27 08:35:39 51°20.125 2°58.81 23.881884 0.066742 0.351881  
2002-11-27 08:35:44 51°20.132 2°58.839 23.881884 0.066742 0.351881  
2002-11-27 08:35:49 51°20.138 2°58.868 24.659494 0.066742 0.351881  
2002-11-27 08:35:53 51°20.143 2°58.891 24.880847 0.066742 0.351881  
2002-11-27 08:35:59 51°20.15 2°58.926 24.192363 0.066742 0.351876  
2002-11-27 08:36:04 51°20.157 2°58.955 24.04813 0.066742 0.351876  
2002-11-27 08:36:09 51°20.163 2°58.984 24.013404 0.066846 0.352446  
2002-11-27 08:36:14 51°20.169 2°59.013 24.013404 0.066846 0.352446  
2002-11-27 08:36:19 51°20.175 2°59.042 24.663286 0.066846 0.352435  
2002-11-27 08:36:24 51°20.181 2°59.072 25.21262 0.066742 0.351871  
2002-11-27 08:36:29 51°20.187 2°59.101 23.89269 0.066742 0.351881  
2002-11-27 08:36:33 51°20.192 2°59.124 24.403802 0.066742 0.351876  
2002-11-27 08:36:39 51°20.198 2°59.159 25.197077 0.066742 0.351876  
2002-11-27 08:36:44 51°20.205 2°59.187 25.197077 0.066742 0.351876  
2002-11-27 08:36:49 51°20.211 2°59.217 24.643492 0.066742 0.351881  
2002-11-27 08:36:53 51°20.216 2°59.24 24.299931 0.066742 0.351876  
2002-11-27 08:36:59 51°20.223 2°59.275 24.395431 0.066846 0.352441  
2002-11-27 08:37:04 51°20.23 2°59.303 25.29171 0.066742 0.351871  
2002-11-27 08:37:09 51°20.235 2°59.332 24.018645 0.066742 0.351871  
2002-11-27 08:37:13 51°20.24 2°59.355 24.018645 0.066742 0.351871  
2002-11-27 08:37:19 51°20.247 2°59.39 24.207931 0.066742 0.351871  
2002-11-27 08:37:24 51°20.254 2°59.419 24.684552 0.066742 0.351876  
2002-11-27 08:37:29 51°20.26 2°59.448 24.240772 0.066742 0.351876  
2002-11-27 08:37:33 51°20.265 2°59.472 23.901847 0.066742 0.351876  
2002-11-27 08:37:39 51°20.273 2°59.506 24.585371 0.066742 0.351871  
2002-11-27 08:37:44 51°20.279 2°59.535 24.585371 0.066742 0.351871  
2002-11-27 08:37:49 51°20.285 2°59.564 24.717065 0.066846 0.352435  
2002-11-27 08:37:53 51°20.291 2°59.588 24.378305 0.066742 0.351871  
2002-11-27 08:37:59 51°20.298 2°59.622 23.932682 0.066742 0.351871  
2002-11-27 08:38:04 51°20.304 2°59.651 24.863041 0.066742 0.351865  
2002-11-27 08:38:09 51°20.31 2°59.68 23.748166 0.066742 0.351871  
2002-11-27 08:38:13 51°20.314 2°59.704 23.748166 0.066742 0.351871  
2002-11-27 08:38:19 51°20.322 2°59.739 24.745018 0.066846 0.35243  
2002-11-27 08:38:23 51°20.326 2°59.762 23.942409 0.066742 0.351871  
2002-11-27 08:38:29 51°20.333 2°59.797 24.722596 0.066742 0.351876  
2002-11-27 08:38:33 51°20.338 2°59.82 24.196828 0.066742 0.351865  
2002-11-27 08:38:39 51°20.345 2°59.855 24.909758 0.066742 0.351871  
2002-11-27 08:38:44 51°20.352 2°59.884 24.909758 0.066742 0.351871  
2002-11-27 08:38:49 51°20.358 2°59.913 24.697172 0.066742 0.351871  
2002-11-27 08:38:53 51°20.363 2°59.937 24.104544 0.066742 0.35186  
2002-11-27 08:38:59 51°20.37 2°59.971 24.416965 0.066742 0.351871  
2002-11-27 08:39:04 51°20.376 2°60 24.412134 0.066742 0.35186  
2002-11-27 08:39:09 51°20.383 3°0.028 23.4021 0.066742 0.35186  
2002-11-27 08:39:13 51°20.387 3°0.052 23.4021 0.066742 0.35186  
2002-11-27 08:39:19 51°20.395 3°0.087 24.703349 0.066846 0.35243  
2002-11-27 08:39:24 51°20.401 3°0.115 25.135063 0.066846 0.352425  
2002-11-27 08:39:29 51°20.407 3°0.144 24.482292 0.066742 0.35186  
2002-11-27 08:39:33 51°20.412 3°0.167 23.827636 0.066742 0.351865  
2002-11-27 08:39:39 51°20.419 3°0.202 23.264243 0.066742 0.351865  
2002-11-27 08:39:44 51°20.425 3°0.231 23.264243 0.066742 0.351865  
2002-11-27 08:39:49 51°20.431 3°0.26 24.767813 0.066846 0.352425  
2002-11-27 08:39:53 51°20.436 3°0.282 24.08219 0.066846 0.352419  
2002-11-27 08:39:59 51°20.442 3°0.317 24.558646 0.066846 0.352414  
2002-11-27 08:40:04 51°20.449 3°0.345 25.046903 0.066742 0.35186  
2002-11-27 08:40:09 51°20.454 3°0.374 24.360985 0.066742 0.35186  
2002-11-27 08:40:13 51°20.459 3°0.397 24.462981 0.066742 0.351854  
2002-11-27 08:40:19 51°20.466 3°0.432 24.462981 0.066742 0.351854  
2002-11-27 08:40:24 51°20.472 3°0.461 24.461993 0.066742 0.351854  
2002-11-27 08:40:29 51°20.477 3°0.489 24.398018 0.066742 0.351849  
2002-11-27 08:40:33 51°20.482 3°0.512 24.220863 0.066846 0.352419  
2002-11-27 08:40:39 51°20.489 3°0.546 24.089183 0.066742 0.351854  
2002-11-27 08:40:44 51°20.495 3°0.574 24.089183 0.066742 0.351854  
2002-11-27 08:40:49 51°20.501 3°0.603 24.091782 0.066742 0.35186  
2002-11-27 08:40:53 51°20.506 3°0.626 24.551242 0.066742 0.35186  
2002-11-27 08:40:59 51°20.514 3°0.66 24.873513 0.066742 0.351854  
2002-11-27 08:41:04 51°20.519 3°0.689 24.685803 0.066742 0.351849  
2002-11-27 08:41:09 51°20.525 3°0.717 25.20927 0.066846 0.352408  
2002-11-27 08:41:13 51°20.53 3°0.74 25.20927 0.066846 0.352408  
2002-11-27 08:41:19 51°20.537 3°0.774 24.976494 0.066846 0.352414  
2002-11-27 08:41:24 51°20.544 3°0.802 24.695315 0.066846 0.352414  
2002-11-27 08:41:29 51°20.551 3°0.83 24.999896 0.066846 0.352419  
2002-11-27 08:41:33 51°20.557 3°0.851 24.202818 0.066846 0.352419  
2002-11-27 08:41:39 51°20.567 3°0.884 24.419438 0.066846 0.352414  
2002-11-27 08:41:43 51°20.573 3°0.906 24.419438 0.066846 0.352414  
2002-11-27 08:41:49 51°20.583 3°0.939 23.950143 0.066846 0.352414  
2002-11-27 08:41:53 51°20.589 3°0.96 25.305015 0.066846 0.352408  
2002-11-27 08:41:59 51°20.599 3°0.993 24.572048 0.066742 0.351849  
2002-11-27 08:42:03 51°20.605 3°1.015 24.414987 0.066742 0.351833  
2002-11-27 08:42:09 51°20.615 3°1.047 24.265288 0.066846 0.352398  
2002-11-27 08:42:13 51°20.621 3°1.069 24.265288 0.066846 0.352398  
2002-11-27 08:42:19 51°20.63 3°1.102 23.821039 0.066846 0.352403  
2002-11-27 08:42:24 51°20.638 3°1.13 23.854938 0.066742 0.351838  
2002-11-27 08:42:29 51°20.646 3°1.157 24.852681 0.066742 0.351844  
2002-11-27 08:42:33 51°20.652 3°1.179 25.281373 0.066742 0.351838  
2002-11-27 08:42:39 51°20.661 3°1.212 23.39149 0.066742 0.351838  
2002-11-27 08:42:43 51°20.668 3°1.234 23.39149 0.066742 0.351838  
2002-11-27 08:42:49 51°20.678 3°1.267 24.858844 0.066742 0.351838  
2002-11-27 08:42:53 51°20.684 3°1.289 24.148581 0.066742 0.351838  
2002-11-27 08:42:59 51°20.694 3°1.322 23.730541 0.066846 0.352398  
2002-11-27 08:43:04 51°20.701 3°1.349 24.64592 0.066742 0.351833  
2002-11-27 08:43:09 51°20.709 3°1.377 24.112643 0.066742 0.351833  
2002-11-27 08:43:13 51°20.715 3°1.399 24.151216 0.066742 0.351838  
2002-11-27 08:43:19 51°20.723 3°1.431 24.151216 0.066742 0.351838  
2002-11-27 08:43:24 51°20.73 3°1.459 23.734611 0.066846 0.352398  
2002-11-27 08:43:29 51°20.737 3°1.487 24.058644 0.066846 0.352398  
2002-11-27 08:43:33 51°20.743 3°1.51 24.182174 0.066846 0.352398  
2002-11-27 08:43:39 51°20.751 3°1.544 24.404715 0.066846 0.352398  
2002-11-27 08:43:44 51°20.758 3°1.573 24.404715 0.066846 0.352398  
2002-11-27 08:43:49 51°20.766 3°1.601 23.967562 0.066846 0.352392  
2002-11-27 08:43:53 51°20.771 3°1.624 25.474648 0.066846 0.352392  
2002-11-27 08:43:59 51°20.779 3°1.658 24.068125 0.066846 0.352387  
2002-11-27 08:44:04 51°20.786 3°1.686 25.023479 0.066846 0.352387  
2002-11-27 08:44:09 51°20.793 3°1.713 24.790525 0.066846 0.352392  
2002-11-27 08:44:13 51°20.798 3°1.736 24.790525 0.066846 0.352392  
2002-11-27 08:44:19 51°20.807 3°1.77 24.04098 0.066846 0.352403  
2002-11-27 08:44:24 51°20.813 3°1.798 24.312466 0.066846 0.352392  
2002-11-27 08:44:29 51°20.82 3°1.825 24.81811 0.066846 0.352392  
2002-11-27 08:44:33 51°20.826 3°1.848 24.969736 0.066846 0.352387  
2002-11-27 08:44:39 51°20.833 3°1.882 24.343241 0.066846 0.352381  
2002-11-27 08:44:43 51°20.839 3°1.904 24.343241 0.066846 0.352381  
2002-11-27 08:44:49 51°20.847 3°1.937 23.757457 0.066846 0.352387  
2002-11-27 08:44:53 51°20.853 3°1.96 24.198545 0.066846 0.352381  
2002-11-27 08:44:59 51°20.862 3°1.993 24.196981 0.066742 0.351827  
2002-11-27 08:45:04 51°20.869 3°2.021 24.354246 0.066846 0.352387  
2002-11-27 08:45:09 51°20.876 3°2.049 23.620778 0.066846 0.352376  
2002-11-27 08:45:13 51°20.88 3°2.071 23.620778 0.066846 0.352376  
2002-11-27 08:45:19 51°20.888 3°2.104 25.22086 0.066846 0.352381  
2002-11-27 08:45:24 51°20.894 3°2.133 24.353941 0.066846 0.352376  
2002-11-27 08:45:29 51°20.901 3°2.161 24.230017 0.066846 0.352381  
2002-11-27 08:45:33 51°20.907 3°2.184 23.668185 0.066742 0.351822  
2002-11-27 08:45:39 51°20.914 3°2.217 23.885065 0.066846 0.352376  
2002-11-27 08:45:44 51°20.92 3°2.246 23.885065 0.066846 0.352376  
2002-11-27 08:45:49 51°20.928 3°2.273 24.206367 0.066846 0.352381  
2002-11-27 08:45:53 51°20.933 3°2.293 25.036003 0.066846 0.352365  
2002-11-27 08:45:59 51°20.941 3°2.326 24.332921 0.066846 0.352376  
2002-11-27 08:46:04 51°20.948 3°2.354 24.045989 0.066846 0.352365  
2002-11-27 08:46:09 51°20.954 3°2.383 24.705357 0.066846 0.352376  
2002-11-27 08:46:14 51°20.961 3°2.41 24.705357 0.066846 0.352376  
2002-11-27 08:46:19 51°20.968 3°2.439 24.117838 0.066846 0.352376  
2002-11-27 08:46:24 51°20.975 3°2.467 24.016732 0.066846 0.352371  
2002-11-27 08:46:29 51°20.982 3°2.495 24.133116 0.066846 0.352376  
2002-11-27 08:46:33 51°20.988 3°2.517 24.701947 0.066846 0.352365  
2002-11-27 08:46:39 51°20.995 3°2.55 24.028245 0.066846 0.352365  
2002-11-27 08:46:44 51°21.002 3°2.578 24.028245 0.066846 0.352365  
2002-11-27 08:46:49 51°21.009 3°2.606 24.401062 0.066846 0.35236  
2002-11-27 08:46:53 51°21.014 3°2.628 24.974984 0.066846 0.352365  
2002-11-27 08:46:59 51°21.022 3°2.662 24.498253 0.066846 0.35236  
2002-11-27 08:47:04 51°21.029 3°2.689 24.121581 0.066846 0.35236  
2002-11-27 08:47:09 51°21.036 3°2.718 24.152476 0.066846 0.35236  
2002-11-27 08:47:13 51°21.041 3°2.741 24.152476 0.066846 0.35236  
2002-11-27 08:47:19 51°21.049 3°2.774 24.192211 0.066846 0.35236  
2002-11-27 08:47:24 51°21.056 3°2.801 24.79359 0.066846 0.35236  
2002-11-27 08:47:29 51°21.062 3°2.829 24.027404 0.066846 0.352349  
2002-11-27 08:47:33 51°21.067 3°2.852 24.788443 0.066846 0.352349  
2002-11-27 08:47:39 51°21.075 3°2.886 24.229788 0.066846 0.352354  
2002-11-27 08:47:44 51°21.082 3°2.914 24.229788 0.066846 0.352354  
2002-11-27 08:47:49 51°21.089 3°2.942 23.69597 0.066846 0.352354  
2002-11-27 08:47:53 51°21.094 3°2.964 23.848497 0.066846 0.352354  
2002-11-27 08:47:59 51°21.102 3°2.997 24.348534 0.066846 0.352338  
2002-11-27 08:48:04 51°21.109 3°3.025 24.10206 0.066846 0.352349  
2002-11-27 08:48:09 51°21.115 3°3.052 23.632738 0.066846 0.352349  
2002-11-27 08:48:13 51°21.121 3°3.074 23.719518 0.066846 0.352349  
2002-11-27 08:48:19 51°21.129 3°3.108 23.719518 0.066846 0.352349  
2002-11-27 08:48:24 51°21.135 3°3.137 23.750738 0.066846 0.352344  
2002-11-27 08:48:29 51°21.141 3°3.166 23.909854 0.066846 0.352344  
2002-11-27 08:48:33 51°21.146 3°3.189 23.979504 0.066846 0.352349  
2002-11-27 08:48:39 51°21.153 3°3.223 23.320576 0.066846 0.352338  
2002-11-27 08:48:44 51°21.159 3°3.251 24.219871 0.066846 0.352338  
2002-11-27 08:48:49 51°21.165 3°3.28 24.219871 0.066846 0.352338  
2002-11-27 08:48:53 51°21.17 3°3.303 23.73369 0.066846 0.352338  
2002-11-27 08:48:59 51°21.177 3°3.337 24.110618 0.066846 0.352338  
2002-11-27 08:49:04 51°21.184 3°3.366 24.424992 0.066846 0.352338  
2002-11-27 08:49:09 51°21.19 3°3.394 23.671606 0.066846 0.352338  
2002-11-27 08:49:13 51°21.196 3°3.416 23.671606 0.066846 0.352338  
2002-11-27 08:49:19 51°21.203 3°3.45 24.547977 0.066846 0.352338  
2002-11-27 08:49:23 51°21.208 3°3.472 24.177442 0.066846 0.352338  
2002-11-27 08:49:29 51°21.216 3°3.506 23.141496 0.066846 0.352338  
2002-11-27 08:49:33 51°21.221 3°3.529 23.585153 0.066846 0.352327  
2002-11-27 08:49:39 51°21.228 3°3.563 23.616508 0.066846 0.352333  
2002-11-27 08:49:44 51°21.235 3°3.591 23.616508 0.066846 0.352333  
2002-11-27 08:49:49 51°21.241 3°3.619 24.082954 0.066846 0.352333  
2002-11-27 08:49:54 51°21.247 3°3.647 23.423546 0.066846 0.352327  
2002-11-27 08:49:59 51°21.253 3°3.675 24.74623 0.066846 0.352333  
2002-11-27 08:50:04 51°21.26 3°3.703 24.374384 0.066846 0.352327  
2002-11-27 08:50:09 51°21.266 3°3.732 23.623201 0.066846 0.352333  
2002-11-27 08:50:13 51°21.271 3°3.755 24.095871 0.066846 0.352327  
2002-11-27 08:50:19 51°21.279 3°3.789 24.095871 0.066846 0.352327  
2002-11-27 08:50:24 51°21.285 3°3.817 24.1461 0.066846 0.352317  
2002-11-27 08:50:29 51°21.291 3°3.845 24.189883 0.066846 0.352317  
2002-11-27 08:50:33 51°21.295 3°3.868 24.181869 0.066846 0.352317  
2002-11-27 08:50:39 51°21.303 3°3.902 23.565487 0.066846 0.352322  
2002-11-27 08:50:44 51°21.309 3°3.931 23.565487 0.066846 0.352322  
2002-11-27 08:50:49 51°21.315 3°3.96 23.931534 0.066846 0.352317  
2002-11-27 08:50:53 51°21.32 3°3.982 23.769279 0.066846 0.352322  
2002-11-27 08:50:59 51°21.327 3°4.016 24.471383 0.066846 0.352317  
2002-11-27 08:51:04 51°21.333 3°4.045 23.631815 0.066846 0.352317  
2002-11-27 08:51:09 51°21.339 3°4.073 24.106378 0.066846 0.352322  
2002-11-27 08:51:13 51°21.345 3°4.096 24.106378 0.066846 0.352322  
2002-11-27 08:51:19 51°21.352 3°4.13 24.02683 0.066846 0.352317  
2002-11-27 08:51:24 51°21.359 3°4.158 24.009196 0.066846 0.352311  
2002-11-27 08:51:29 51°21.365 3°4.187 24.657144 0.066846 0.352306  
2002-11-27 08:51:33 51°21.37 3°4.209 23.821193 0.066846 0.352306  
2002-11-27 08:51:39 51°21.378 3°4.244 24.946325 0.066846 0.352311  
2002-11-27 08:51:44 51°21.384 3°4.272 24.946325 0.066846 0.352311  
2002-11-27 08:51:49 51°21.39 3°4.301 24.190188 0.066846 0.352311  
2002-11-27 08:51:53 51°21.396 3°4.323 23.797294 0.066846 0.352311  
2002-11-27 08:51:59 51°21.402 3°4.357 23.757917 0.066846 0.352306  
2002-11-27 08:52:04 51°21.408 3°4.386 25.347545 0.066846 0.352306  
2002-11-27 08:52:09 51°21.415 3°4.415 23.613662 0.066846 0.352306  
2002-11-27 08:52:13 51°21.42 3°4.438 25.192899 0.066846 0.352295  
2002-11-27 08:52:19 51°21.427 3°4.472 25.192899 0.066846 0.352295  
2002-11-27 08:52:24 51°21.433 3°4.5 23.539347 0.066846 0.35229  
2002-11-27 08:52:29 51°21.439 3°4.529 23.922533 0.066846 0.35229  
2002-11-27 08:52:33 51°21.443 3°4.552 23.990678 0.066846 0.352295  
2002-11-27 08:52:39 51°21.45 3°4.587 24.960373 0.066846 0.352295  
2002-11-27 08:52:44 51°21.456 3°4.615 24.960373 0.066846 0.352295  
2002-11-27 08:52:49 51°21.462 3°4.643 24.949686 0.066846 0.35229  
2002-11-27 08:52:53 51°21.467 3°4.666 24.092202 0.066846 0.3523  
2002-11-27 08:52:59 51°21.474 3°4.7 24.277562 0.066846 0.352295  
2002-11-27 08:53:04 51°21.481 3°4.729 23.873414 0.066846 0.35229  
2002-11-27 08:53:09 51°21.487 3°4.757 24.242373 0.066846 0.352279  
2002-11-27 08:53:13 51°21.491 3°4.78 24.088992 0.066846 0.352284  
2002-11-27 08:53:19 51°21.498 3°4.814 24.088992 0.066846 0.352284  
2002-11-27 08:53:23 51°21.502 3°4.837 23.644851 0.066846 0.352279  
2002-11-27 08:53:29 51°21.509 3°4.871 23.996839 0.066846 0.352284  
2002-11-27 08:53:33 51°21.513 3°4.894 24.437125 0.066846 0.352279  
2002-11-27 08:53:39 51°21.52 3°4.928 24.473207 0.066846 0.352279  
2002-11-27 08:53:44 51°21.527 3°4.956 25.092372 0.066846 0.352279  
2002-11-27 08:53:49 51°21.533 3°4.985 25.092372 0.066846 0.352279  
2002-11-27 08:53:53 51°21.538 3°5.008 24.629497 0.066846 0.352279  
2002-11-27 08:53:59 51°21.545 3°5.042 24.584042 0.066846 0.352273  
2002-11-27 08:54:04 51°21.551 3°5.071 24.343241 0.066846 0.352268  
2002-11-27 08:54:09 51°21.556 3°5.1 24.269824 0.066846 0.352257  
2002-11-27 08:54:13 51°21.561 3°5.122 24.269824 0.066846 0.352257  
2002-11-27 08:54:19 51°21.567 3°5.157 24.466631 0.066846 0.352257  
2002-11-27 08:54:24 51°21.573 3°5.186 24.602448 0.066846 0.352268  
2002-11-27 08:54:29 51°21.578 3°5.214 24.2901 0.066846 0.352263  
2002-11-27 08:54:33 51°21.583 3°5.237 25.527571 0.066846 0.352263  
2002-11-27 08:54:39 51°21.591 3°5.271 23.822957 0.066846 0.352263  
2002-11-27 08:54:44 51°21.597 3°5.299 23.822957 0.066846 0.352263  
2002-11-27 08:54:49 51°21.603 3°5.327 23.936972 0.066846 0.352252  
2002-11-27 08:54:53 51°21.608 3°5.35 24.761869 0.066846 0.352252  
2002-11-27 08:54:59 51°21.615 3°5.384 25.413282 0.066846 0.352246  
2002-11-27 08:55:04 51°21.62 3°5.413 23.820579 0.066846 0.352241  
2002-11-27 08:55:09 51°21.626 3°5.441 24.452716 0.066846 0.352241  
2002-11-27 08:55:13 51°21.63 3°5.464 24.452716 0.066846 0.352241  
2002-11-27 08:55:19 51°21.637 3°5.499 24.233716 0.066846 0.352241  
2002-11-27 08:55:24 51°21.642 3°5.527 24.330902 0.066846 0.352241  
2002-11-27 08:55:29 51°21.648 3°5.556 24.671892 0.066846 0.352236  
2002-11-27 08:55:33 51°21.653 3°5.578 24.551242 0.066846 0.352236  
2002-11-27 08:55:39 51°21.66 3°5.612 23.86019 0.066846 0.352225  
2002-11-27 08:55:44 51°21.665 3°5.64 23.86019 0.066846 0.352225  
2002-11-27 08:55:49 51°21.671 3°5.669 24.024727 0.066846 0.35223  
2002-11-27 08:55:53 51°21.676 3°5.691 23.366908 0.066846 0.35223  
2002-11-27 08:55:59 51°21.683 3°5.725 23.82917 0.066846 0.352219  
2002-11-27 08:56:04 51°21.689 3°5.754 23.620393 0.066846 0.352219  
2002-11-27 08:56:09 51°21.694 3°5.782 23.680369 0.066846 0.352214  
2002-11-27 08:56:13 51°21.699 3°5.805 23.680369 0.066846 0.352214  
2002-11-27 08:56:19 51°21.706 3°5.839 23.588424 0.066846 0.352214  
2002-11-27 08:56:24 51°21.711 3°5.867 23.934329 0.066846 0.352219  
2002-11-27 08:56:29 51°21.717 3°5.895 24.501217 0.066846 0.352209  
2002-11-27 08:56:33 51°21.722 3°5.918 23.145174 0.066846 0.352209  
2002-11-27 08:56:39 51°21.729 3°5.952 24.06866 0.066846 0.352209  
2002-11-27 08:56:44 51°21.735 3°5.981 24.06866 0.066846 0.352209  
2002-11-27 08:56:49 51°21.741 3°6.009 24.375526 0.066846 0.352219  
2002-11-27 08:56:53 51°21.746 3°6.032 23.956997 0.066846 0.352203  
2002-11-27 08:56:59 51°21.753 3°6.066 23.636314 0.066846 0.352193  
2002-11-27 08:57:04 51°21.758 3°6.095 23.966222 0.066846 0.352198  
2002-11-27 08:57:09 51°21.763 3°6.124 25.084871 0.066846 0.352193  
2002-11-27 08:57:13 51°21.767 3°6.147 25.084871 0.066846 0.352193  
2002-11-27 08:57:19 51°21.773 3°6.182 24.219719 0.066846 0.352187  
2002-11-27 08:57:23 51°21.776 3°6.205 24.066328 0.066846 0.352187  
2002-11-27 08:57:29 51°21.782 3°6.24 24.416014 0.066846 0.352193  
2002-11-27 08:57:33 51°21.786 3°6.263 24.657561 0.066846 0.352187  
2002-11-27 08:57:39 51°21.791 3°6.298 24.535748 0.066846 0.352187  
2002-11-27 08:57:44 51°21.795 3°6.327 24.535748 0.066846 0.352187  
2002-11-27 08:57:49 51°21.8 3°6.356 23.783633 0.066846 0.352182  
2002-11-27 08:57:53 51°21.804 3°6.379 24.293606 0.066846 0.352176  
2002-11-27 08:57:59 51°21.809 3°6.414 24.904544 0.066846 0.352171  
2002-11-27 08:58:04 51°21.813 3°6.443 24.909381 0.066846 0.352171  
2002-11-27 08:58:09 51°21.818 3°6.472 25.01099 0.066846 0.352171  
2002-11-27 08:58:13 51°21.821 3°6.495 25.01099 0.066846 0.352171  
2002-11-27 08:58:19 51°21.827 3°6.53 24.883342 0.066846 0.352166  
2002-11-27 08:58:24 51°21.832 3°6.559 25.807479 0.066846 0.352171  
2002-11-27 08:58:29 51°21.836 3°6.587 24.476286 0.066846 0.352155  
2002-11-27 08:58:33 51°21.84 3°6.61 24.759256 0.066846 0.352149  
2002-11-27 08:58:39 51°21.845 3°6.645 24.423432 0.066846 0.352155  
2002-11-27 08:58:44 51°21.85 3°6.675 24.423432 0.066846 0.352155  
2002-11-27 08:58:49 51°21.855 3°6.703 24.576489 0.066846 0.352144  
2002-11-27 08:58:53 51°21.858 3°6.726 24.452944 0.066846 0.352144  
2002-11-27 08:58:59 51°21.864 3°6.76 24.238865 0.066846 0.352144  
2002-11-27 08:59:04 51°21.868 3°6.789 24.796466 0.066846 0.352139  
2002-11-27 08:59:09 51°21.873 3°6.818 24.272759 0.066846 0.352139  
2002-11-27 08:59:13 51°21.877 3°6.842 24.272759 0.066846 0.352139  
2002-11-27 08:59:19 51°21.882 3°6.876 24.053101 0.066846 0.352139  
2002-11-27 08:59:24 51°21.887 3°6.904 24.737482 0.066846 0.352128  
2002-11-27 08:59:29 51°21.892 3°6.933 24.671058 0.066846 0.352128  
2002-11-27 08:59:33 51°21.896 3°6.956 24.265669 0.066846 0.352122  
2002-11-27 08:59:39 51°21.902 3°6.99 24.244699 0.066846 0.352117  
2002-11-27 08:59:44 51°21.906 3°7.019 24.019716 0.066846 0.352117  
2002-11-27 08:59:49 51°21.911 3°7.047 24.019716 0.066846 0.352117  
2002-11-27 08:59:53 51°21.915 3°7.07 24.00032 0.066846 0.352112  
2002-11-27 08:59:59 51°21.921 3°7.104 23.927857 0.066846 0.352106  
2002-11-27 09:00:04 51°21.926 3°7.132 23.930729 0.066846 0.352101  
2002-11-27 09:00:09 51°21.93 3°7.161 23.798521 0.066846 0.352095  
2002-11-27 09:00:13 51°21.933 3°7.184 23.798521 0.066846 0.352095  
2002-11-27 09:00:19 51°21.938 3°7.218 24.314409 0.066846 0.352095  
2002-11-27 09:00:24 51°21.942 3°7.247 23.280244 0.066846 0.352101  
2002-11-27 09:00:29 51°21.947 3°7.275 23.228249 0.066846 0.352085  
2002-11-27 09:00:33 51°21.95 3°7.298 23.590656 0.066846 0.352095  
2002-11-27 09:00:39 51°21.954 3°7.333 23.307714 0.066846 0.35209  
2002-11-27 09:00:44 51°21.958 3°7.362 22.986728 0.066846 0.352074  
2002-11-27 09:00:49 51°21.962 3°7.391 22.986728 0.066846 0.352074  
2002-11-27 09:00:53 51°21.965 3°7.414 23.152646 0.066846 0.352079  
2002-11-27 09:00:59 51°21.97 3°7.448 23.277268 0.066846 0.352069  
2002-11-27 09:01:04 51°21.974 3°7.477 23.624393 0.066846 0.352069  
2002-11-27 09:01:09 51°21.977 3°7.506 23.531915 0.066846 0.352069  
2002-11-27 09:01:13 51°21.981 3°7.529 23.531915 0.066846 0.352069  
2002-11-27 09:01:19 51°21.985 3°7.563 23.120469 0.066846 0.352069  
2002-11-27 09:01:24 51°21.989 3°7.593 22.991384 0.066846 0.352058  
2002-11-27 09:01:29 51°21.992 3°7.621 23.657422 0.066846 0.352058  
2002-11-27 09:01:33 51°21.995 3°7.644 22.83606 0.066846 0.352052  
2002-11-27 09:01:39 51°22 3°7.679 24.664347 0.066846 0.352047  
2002-11-27 09:01:44 51°22.004 3°7.708 24.664347 0.066846 0.352047  
2002-11-27 09:01:49 51°22.008 3°7.737 24.010229 0.066846 0.352052  
2002-11-27 09:01:53 51°22.011 3°7.76 23.873989 0.066846 0.352036  
2002-11-27 09:01:59 51°22.016 3°7.795 24.257282 0.066846 0.352036  
2002-11-27 09:02:03 51°22.019 3°7.818 24.448647 0.066846 0.352031  
2002-11-27 09:02:09 51°22.023 3°7.853 24.729376 0.066846 0.352031  
2002-11-27 09:02:13 51°22.026 3°7.876 24.664878 0.066846 0.352025  
2002-11-27 09:02:19 51°22.029 3°7.911 24.664878 0.066846 0.352025  
2002-11-27 09:02:24 51°22.033 3°7.941 24.269862 0.066846 0.352031  
2002-11-27 09:02:29 51°22.037 3°7.97 24.104544 0.066846 0.35202  
2002-11-27 09:02:33 51°22.041 3°7.993 24.423737 0.066846 0.35202  
2002-11-27 09:02:39 51°22.045 3°8.027 23.924295 0.066846 0.35202  
2002-11-27 09:02:44 51°22.049 3°8.056 24.04511 0.066846 0.352009  
2002-11-27 09:02:49 51°22.053 3°8.085 24.04511 0.066846 0.352009  
2002-11-27 09:02:53 51°22.056 3°8.109 24.517478 0.066846 0.352004  
2002-11-27 09:02:59 51°22.061 3°8.143 24.027557 0.066846 0.352009  
2002-11-27 09:03:04 51°22.065 3°8.172 24.416014 0.06695 0.352563  
2002-11-27 09:03:09 51°22.069 3°8.201 23.897748 0.066846 0.352004  
2002-11-27 09:03:13 51°22.072 3°8.224 24.925778 0.06695 0.352568  
2002-11-27 09:03:19 51°22.078 3°8.258 24.925778 0.06695 0.352568  
2002-11-27 09:03:24 51°22.081 3°8.286 23.584461 0.06695 0.352552  
2002-11-27 09:03:29 51°22.085 3°8.315 24.396306 0.06695 0.352557  
2002-11-27 09:03:33 51°22.088 3°8.338 24.956144 0.06695 0.352557  
2002-11-27 09:03:39 51°22.093 3°8.373 23.379798 0.066846 0.351982  
2002-11-27 09:03:44 51°22.096 3°8.401 23.379798 0.066846 0.351982  
2002-11-27 09:03:49 51°22.1 3°8.43 24.782425 0.06695 0.352552  
2002-11-27 09:03:53 51°22.103 3°8.454 24.325608 0.06695 0.352536  
2002-11-27 09:03:59 51°22.107 3°8.489 23.867588 0.066846 0.351977  
2002-11-27 09:04:03 51°22.109 3°8.512 24.403003 0.06695 0.352536  
2002-11-27 09:04:09 51°22.113 3°8.547 23.96538 0.06695 0.352536  
2002-11-27 09:04:13 51°22.116 3°8.57 23.96538 0.06695 0.352536  
2002-11-27 09:04:19 51°22.121 3°8.604 24.366314 0.06695 0.352525  
2002-11-27 09:04:24 51°22.124 3°8.633 24.221931 0.06695 0.35253  
2002-11-27 09:04:29 51°22.128 3°8.662 24.0012 0.06695 0.35253  
2002-11-27 09:04:33 51°22.131 3°8.685 24.921849 0.06695 0.352519  
2002-11-27 09:04:39 51°22.135 3°8.719 23.497133 0.066846 0.351955  
2002-11-27 09:04:44 51°22.139 3°8.748 23.497133 0.066846 0.351955  
2002-11-27 09:04:49 51°22.142 3°8.777 23.769587 0.06695 0.352514  
2002-11-27 09:04:53 51°22.146 3°8.8 23.886061 0.06695 0.352519  
2002-11-27 09:04:59 51°22.15 3°8.834 24.009235 0.06695 0.352514  
2002-11-27 09:05:04 51°22.154 3°8.861 23.442287 0.06695 0.352514  
2002-11-27 09:05:09 51°22.158 3°8.889 24.168739 0.06695 0.352509  
2002-11-27 09:05:13 51°22.161 3°8.912 23.87464 0.06695 0.352498  
2002-11-27 09:05:19 51°22.165 3°8.947 23.87464 0.06695 0.352498  
2002-11-27 09:05:24 51°22.168 3°8.977 23.911885 0.06695 0.352498  
2002-11-27 09:05:29 51°22.172 3°9.006 24.385346 0.06695 0.352493  
2002-11-27 09:05:33 51°22.175 3°9.028 24.228911 0.06695 0.352493  
2002-11-27 09:05:39 51°22.18 3°9.062 24.447582 0.06695 0.352493  
2002-11-27 09:05:44 51°22.184 3°9.091 24.447582 0.06695 0.352493  
2002-11-27 09:05:49 51°22.188 3°9.119 24.104009 0.06695 0.352498  
2002-11-27 09:05:53 51°22.191 3°9.142 24.042089 0.06695 0.352487  
2002-11-27 09:05:59 51°22.195 3°9.176 23.631738 0.06695 0.352482  
2002-11-27 09:06:04 51°22.199 3°9.205 24.609923 0.06695 0.352487  
2002-11-27 09:06:09 51°22.203 3°9.233 24.098431 0.06695 0.352476  
2002-11-27 09:06:13 51°22.206 3°9.255 24.488525 0.06695 0.352487  
2002-11-27 09:06:19 51°22.211 3°9.289 24.488525 0.06695 0.352487  
2002-11-27 09:06:24 51°22.215 3°9.317 25.231469 0.06695 0.352471  
2002-11-27 09:06:29 51°22.219 3°9.346 23.886636 0.06695 0.352471  
2002-11-27 09:06:33 51°22.223 3°9.368 24.392653 0.06695 0.352471  
2002-11-27 09:06:39 51°22.227 3°9.402 23.530066 0.06695 0.35246  
2002-11-27 09:06:44 51°22.231 3°9.431 23.530066 0.06695 0.35246